sensor_id;sensor_type;location;lat;lon;timestamp;temperature;humidity
17715;DHT22;8977;50.902;4.314;2024-02-21T00:01:55;12.30;99.90
17715;DHT22;8977;50.902;4.314;2024-02-21T00:04:22;12.30;99.90
17715;DHT22;8977;50.902;4.314;2024-02-21T00:06:49;12.20;99.90
17715;DHT22;8977;50.902;4.314;2024-02-21T00:09:16;12.20;99.90
17715;DHT22;8977;50.902;4.314;2024-02-21T00:11:46;12.20;99.90
17715;DHT22;8977;50.902;4.314;2024-02-21T00:14:13;12.20;99.90
17715;DHT22;8977;50.902;4.314;2024-02-21T00:16:40;12.20;99.90
17715;DHT22;8977;50.902;4.314;2024-02-21T00:19:07;12.30;99.90
17715;DHT22;8977;50.902;4.314;2024-02-21T00:21:34;12.30;99.90
17715;DHT22;8977;50.902;4.314;2024-02-21T00:24:01;12.30;99.90
17715;DHT22;8977;50.902;4.314;2024-02-21T00:26:27;12.30;99.90
17715;DHT22;8977;50.902;4.314;2024-02-21T00:28:56;12.30;99.90
17715;DHT22;8977;50.902;4.314;2024-02-21T00:31:23;12.30;99.90
17715;DHT22;8977;50.902;4.314;2024-02-21T00:33:50;12.30;99.90
17715;DHT22;8977;50.902;4.314;2024-02-21T00:36:17;12.30;99.90
17715;DHT22;8977;50.902;4.314;2024-02-21T00:38:43;12.30;99.90
17715;DHT22;8977;50.902;4.314;2024-02-21T00:41:10;12.40;99.90
17715;DHT22;8977;50.902;4.314;2024-02-21T00:43:37;12.30;99.90
17715;DHT22;8977;50.902;4.314;2024-02-21T00:46:07;12.30;99.90
17715;DHT22;8977;50.902;4.314;2024-02-21T00:48:34;12.30;99.90
17715;DHT22;8977;50.902;4.314;2024-02-21T00:51:01;12.30;99.90
17715;DHT22;8977;50.902;4.314;2024-02-21T00:53:28;12.40;99.90
17715;DHT22;8977;50.902;4.314;2024-02-21T00:55:54;12.40;99.90
17715;DHT22;8977;50.902;4.314;2024-02-21T00:58:22;12.50;99.90
17715;DHT22;8977;50.902;4.314;2024-02-21T01:00:49;12.40;99.90
17715;DHT22;8977;50.902;4.314;2024-02-21T01:03:17;12.30;99.90
17715;DHT22;8977;50.902;4.314;2024-02-21T01:05:45;12.30;99.90
17715;DHT22;8977;50.902;4.314;2024-02-21T01:08:11;12.30;99.90
17715;DHT22;8977;50.902;4.314;2024-02-21T01:10:38;12.30;99.90
17715;DHT22;8977;50.902;4.314;2024-02-21T01:13:05;12.40;99.90
17715;DHT22;8977;50.902;4.314;2024-02-21T01:15:32;12.30;99.90
17715;DHT22;8977;50.902;4.314;2024-02-21T01:17:59;12.30;99.90
17715;DHT22;8977;50.902;4.314;2024-02-21T01:20:28;12.30;99.90
17715;DHT22;8977;50.902;4.314;2024-02-21T01:22:54;12.40;99.90
17715;DHT22;8977;50.902;4.314;2024-02-21T01:25:22;12.30;99.90
17715;DHT22;8977;50.902;4.314;2024-02-21T01:27:49;12.30;99.90
17715;DHT22;8977;50.902;4.314;2024-02-21T01:30:17;12.30;99.90
17715;DHT22;8977;50.902;4.314;2024-02-21T01:32:44;12.30;99.90
17715;DHT22;8977;50.902;4.314;2024-02-21T01:35:11;12.30;99.90
17715;DHT22;8977;50.902;4.314;2024-02-21T01:37:39;12.30;99.90
17715;DHT22;8977;50.902;4.314;2024-02-21T01:40:07;12.30;99.90
17715;DHT22;8977;50.902;4.314;2024-02-21T01:42:38;12.30;99.90
17715;DHT22;8977;50.902;4.314;2024-02-21T01:45:05;12.30;99.90
17715;DHT22;8977;50.902;4.314;2024-02-21T01:47:32;12.30;99.90
17715;DHT22;8977;50.902;4.314;2024-02-21T01:50:00;12.30;99.90
17715;DHT22;8977;50.902;4.314;2024-02-21T01:52:28;12.30;99.90
17715;DHT22;8977;50.902;4.314;2024-02-21T01:54:57;12.30;99.90
17715;DHT22;8977;50.902;4.314;2024-02-21T01:57:24;12.20;99.90
17715;DHT22;8977;50.902;4.314;2024-02-21T01:59:52;12.30;99.90
17715;DHT22;8977;50.902;4.314;2024-02-21T02:02:19;12.30;99.90
17715;DHT22;8977;50.902;4.314;2024-02-21T02:04:46;12.20;99.90
17715;DHT22;8977;50.902;4.314;2024-02-21T02:07:13;12.20;99.90
17715;DHT22;8977;50.902;4.314;2024-02-21T02:09:40;12.20;99.90
17715;DHT22;8977;50.902;4.314;2024-02-21T02:12:08;12.20;99.90
17715;DHT22;8977;50.902;4.314;2024-02-21T02:14:35;12.20;99.90
17715;DHT22;8977;50.902;4.314;2024-02-21T02:17:02;12.30;99.90
17715;DHT22;8977;50.902;4.314;2024-02-21T02:19:29;12.30;99.90
17715;DHT22;8977;50.902;4.314;2024-02-21T02:22:00;12.30;99.90
17715;DHT22;8977;50.902;4.314;2024-02-21T02:24:33;12.30;99.90
17715;DHT22;8977;50.902;4.314;2024-02-21T02:27:00;12.30;99.90
17715;DHT22;8977;50.902;4.314;2024-02-21T02:29:27;12.30;99.90
17715;DHT22;8977;50.902;4.314;2024-02-21T02:31:54;12.30;99.90
17715;DHT22;8977;50.902;4.314;2024-02-21T02:34:21;12.30;99.90
17715;DHT22;8977;50.902;4.314;2024-02-21T02:36:48;12.30;99.90
17715;DHT22;8977;50.902;4.314;2024-02-21T02:39:15;12.30;99.90
17715;DHT22;8977;50.902;4.314;2024-02-21T02:41:43;12.30;99.90
17715;DHT22;8977;50.902;4.314;2024-02-21T02:44:10;12.30;99.90
17715;DHT22;8977;50.902;4.314;2024-02-21T02:46:40;12.30;99.90
17715;DHT22;8977;50.902;4.314;2024-02-21T02:49:07;12.30;99.90
17715;DHT22;8977;50.902;4.314;2024-02-21T02:51:34;12.30;99.90
17715;DHT22;8977;50.902;4.314;2024-02-21T02:54:01;12.30;99.90
17715;DHT22;8977;50.902;4.314;2024-02-21T02:56:28;12.30;99.90
17715;DHT22;8977;50.902;4.314;2024-02-21T02:58:56;12.20;99.90
17715;DHT22;8977;50.902;4.314;2024-02-21T03:01:23;12.30;99.90
17715;DHT22;8977;50.902;4.314;2024-02-21T03:03:50;12.30;99.90
17715;DHT22;8977;50.902;4.314;2024-02-21T03:06:17;12.20;99.90
17715;DHT22;8977;50.902;4.314;2024-02-21T03:08:44;12.20;99.90
17715;DHT22;8977;50.902;4.314;2024-02-21T03:11:11;12.20;99.90
17715;DHT22;8977;50.902;4.314;2024-02-21T03:13:38;12.30;99.90
17715;DHT22;8977;50.902;4.314;2024-02-21T03:16:06;12.20;99.90
17715;DHT22;8977;50.902;4.314;2024-02-21T03:18:33;12.30;99.90
17715;DHT22;8977;50.902;4.314;2024-02-21T03:21:01;12.30;99.90
17715;DHT22;8977;50.902;4.314;2024-02-21T03:23:28;12.20;99.90
17715;DHT22;8977;50.902;4.314;2024-02-21T03:25:54;12.20;99.90
17715;DHT22;8977;50.902;4.314;2024-02-21T03:28:21;12.20;99.90
17715;DHT22;8977;50.902;4.314;2024-02-21T03:30:48;12.20;99.90
17715;DHT22;8977;50.902;4.314;2024-02-21T03:33:16;12.30;99.90
17715;DHT22;8977;50.902;4.314;2024-02-21T03:35:45;12.30;99.90
17715;DHT22;8977;50.902;4.314;2024-02-21T03:38:12;12.30;99.90
17715;DHT22;8977;50.902;4.314;2024-02-21T03:40:39;12.40;99.90
17715;DHT22;8977;50.902;4.314;2024-02-21T03:43:06;12.30;99.90
17715;DHT22;8977;50.902;4.314;2024-02-21T03:45:33;12.50;99.90
17715;DHT22;8977;50.902;4.314;2024-02-21T03:48:00;12.40;99.90
17715;DHT22;8977;50.902;4.314;2024-02-21T03:50:28;12.30;99.90
17715;DHT22;8977;50.902;4.314;2024-02-21T03:52:55;12.20;99.90
17715;DHT22;8977;50.902;4.314;2024-02-21T03:55:21;12.20;99.90
17715;DHT22;8977;50.902;4.314;2024-02-21T03:57:48;12.20;99.90
17715;DHT22;8977;50.902;4.314;2024-02-21T04:00:16;12.10;99.90
17715;DHT22;8977;50.902;4.314;2024-02-21T04:02:43;12.10;99.90
17715;DHT22;8977;50.902;4.314;2024-02-21T04:05:10;12.10;99.90
17715;DHT22;8977;50.902;4.314;2024-02-21T04:07:39;12.20;99.90
17715;DHT22;8977;50.902;4.314;2024-02-21T04:10:06;12.20;99.90
17715;DHT22;8977;50.902;4.314;2024-02-21T04:12:33;12.20;99.90
17715;DHT22;8977;50.902;4.314;2024-02-21T04:15:00;12.20;99.90
17715;DHT22;8977;50.902;4.314;2024-02-21T04:17:27;12.30;99.90
17715;DHT22;8977;50.902;4.314;2024-02-21T04:20:02;12.20;99.90
17715;DHT22;8977;50.902;4.314;2024-02-21T04:22:31;12.20;99.90
17715;DHT22;8977;50.902;4.314;2024-02-21T04:25:00;12.20;99.90
17715;DHT22;8977;50.902;4.314;2024-02-21T04:27:27;12.30;99.90
17715;DHT22;8977;50.902;4.314;2024-02-21T04:29:55;12.20;99.90
17715;DHT22;8977;50.902;4.314;2024-02-21T04:32:22;12.20;99.90
17715;DHT22;8977;50.902;4.314;2024-02-21T04:34:48;12.20;99.90
17715;DHT22;8977;50.902;4.314;2024-02-21T04:37:15;12.20;99.90
17715;DHT22;8977;50.902;4.314;2024-02-21T04:39:42;12.20;99.90
17715;DHT22;8977;50.902;4.314;2024-02-21T04:42:10;12.10;99.90
17715;DHT22;8977;50.902;4.314;2024-02-21T04:44:38;12.20;99.90
17715;DHT22;8977;50.902;4.314;2024-02-21T04:47:05;12.30;99.90
17715;DHT22;8977;50.902;4.314;2024-02-21T04:49:32;12.20;99.90
17715;DHT22;8977;50.902;4.314;2024-02-21T04:51:59;12.20;99.90
17715;DHT22;8977;50.902;4.314;2024-02-21T04:54:26;12.20;99.90
17715;DHT22;8977;50.902;4.314;2024-02-21T04:56:53;12.10;99.90
17715;DHT22;8977;50.902;4.314;2024-02-21T04:59:21;12.10;99.90
17715;DHT22;8977;50.902;4.314;2024-02-21T05:01:48;12.10;99.90
17715;DHT22;8977;50.902;4.314;2024-02-21T05:04:15;12.20;99.90
17715;DHT22;8977;50.902;4.314;2024-02-21T05:06:42;12.20;99.90
17715;DHT22;8977;50.902;4.314;2024-02-21T05:09:09;12.10;99.90
17715;DHT22;8977;50.902;4.314;2024-02-21T05:11:36;12.10;99.90
17715;DHT22;8977;50.902;4.314;2024-02-21T05:14:04;12.20;99.90
17715;DHT22;8977;50.902;4.314;2024-02-21T05:16:32;12.10;99.90
17715;DHT22;8977;50.902;4.314;2024-02-21T05:18:59;12.20;99.90
17715;DHT22;8977;50.902;4.314;2024-02-21T05:21:26;12.20;99.90
17715;DHT22;8977;50.902;4.314;2024-02-21T05:23:53;12.20;99.90
17715;DHT22;8977;50.902;4.314;2024-02-21T05:26:21;12.20;99.90
17715;DHT22;8977;50.902;4.314;2024-02-21T05:28:48;12.20;99.90
17715;DHT22;8977;50.902;4.314;2024-02-21T05:31:15;12.20;99.90
17715;DHT22;8977;50.902;4.314;2024-02-21T05:33:44;12.20;99.90
17715;DHT22;8977;50.902;4.314;2024-02-21T05:36:11;12.20;99.90
17715;DHT22;8977;50.902;4.314;2024-02-21T05:38:38;12.20;99.90
17715;DHT22;8977;50.902;4.314;2024-02-21T05:41:05;12.20;99.90
17715;DHT22;8977;50.902;4.314;2024-02-21T05:43:32;12.20;99.90
17715;DHT22;8977;50.902;4.314;2024-02-21T05:45:59;12.20;99.90
17715;DHT22;8977;50.902;4.314;2024-02-21T05:48:26;12.20;99.90
17715;DHT22;8977;50.902;4.314;2024-02-21T05:50:54;12.30;99.90
17715;DHT22;8977;50.902;4.314;2024-02-21T05:53:21;12.30;99.90
17715;DHT22;8977;50.902;4.314;2024-02-21T05:55:48;12.20;99.90
17715;DHT22;8977;50.902;4.314;2024-02-21T05:58:15;12.20;99.90
17715;DHT22;8977;50.902;4.314;2024-02-21T06:00:42;12.30;99.90
17715;DHT22;8977;50.902;4.314;2024-02-21T06:03:09;12.30;99.90
17715;DHT22;8977;50.902;4.314;2024-02-21T06:05:37;12.30;99.90
17715;DHT22;8977;50.902;4.314;2024-02-21T06:08:06;12.30;99.90
17715;DHT22;8977;50.902;4.314;2024-02-21T06:10:34;12.20;99.90
17715;DHT22;8977;50.902;4.314;2024-02-21T06:13:01;12.20;99.90
17715;DHT22;8977;50.902;4.314;2024-02-21T06:15:28;12.20;99.90
17715;DHT22;8977;50.902;4.314;2024-02-21T06:17:55;12.20;99.90
17715;DHT22;8977;50.902;4.314;2024-02-21T06:20:22;12.20;99.90
17715;DHT22;8977;50.902;4.314;2024-02-21T06:22:48;12.30;99.90
17715;DHT22;8977;50.902;4.314;2024-02-21T06:25:17;12.30;99.90
17715;DHT22;8977;50.902;4.314;2024-02-21T06:27:44;12.30;99.90
17715;DHT22;8977;50.902;4.314;2024-02-21T06:30:11;12.30;99.90
17715;DHT22;8977;50.902;4.314;2024-02-21T06:32:38;12.30;99.90
17715;DHT22;8977;50.902;4.314;2024-02-21T06:35:06;12.30;99.90
17715;DHT22;8977;50.902;4.314;2024-02-21T06:37:32;12.30;99.90
17715;DHT22;8977;50.902;4.314;2024-02-21T06:39:59;12.20;99.90
17715;DHT22;8977;50.902;4.314;2024-02-21T06:42:27;12.20;99.90
17715;DHT22;8977;50.902;4.314;2024-02-21T06:44:55;12.20;99.90
17715;DHT22;8977;50.902;4.314;2024-02-21T06:47:22;12.30;99.90
17715;DHT22;8977;50.902;4.314;2024-02-21T06:49:49;12.20;99.90
17715;DHT22;8977;50.902;4.314;2024-02-21T06:52:17;12.30;99.90
17715;DHT22;8977;50.902;4.314;2024-02-21T06:54:46;12.30;99.90
17715;DHT22;8977;50.902;4.314;2024-02-21T06:57:13;12.30;99.90
17715;DHT22;8977;50.902;4.314;2024-02-21T06:59:42;12.20;99.90
17715;DHT22;8977;50.902;4.314;2024-02-21T07:02:09;12.30;99.90
17715;DHT22;8977;50.902;4.314;2024-02-21T07:04:36;12.30;99.90
17715;DHT22;8977;50.902;4.314;2024-02-21T07:07:03;12.30;99.90
17715;DHT22;8977;50.902;4.314;2024-02-21T07:09:30;12.40;99.90
17715;DHT22;8977;50.902;4.314;2024-02-21T07:11:57;12.30;99.90
17715;DHT22;8977;50.902;4.314;2024-02-21T07:14:24;12.20;99.90
17715;DHT22;8977;50.902;4.314;2024-02-21T07:16:52;12.30;99.90
17715;DHT22;8977;50.902;4.314;2024-02-21T07:19:20;12.20;99.90
17715;DHT22;8977;50.902;4.314;2024-02-21T07:21:46;12.20;99.90
17715;DHT22;8977;50.902;4.314;2024-02-21T07:24:13;12.20;99.90
17715;DHT22;8977;50.902;4.314;2024-02-21T07:26:41;12.20;99.90
17715;DHT22;8977;50.902;4.314;2024-02-21T07:29:09;12.20;99.90
17715;DHT22;8977;50.902;4.314;2024-02-21T07:31:40;12.20;99.90
17715;DHT22;8977;50.902;4.314;2024-02-21T07:34:09;12.20;99.90
17715;DHT22;8977;50.902;4.314;2024-02-21T07:36:36;12.20;99.90
17715;DHT22;8977;50.902;4.314;2024-02-21T07:39:04;12.10;99.90
17715;DHT22;8977;50.902;4.314;2024-02-21T07:41:31;12.10;99.90
17715;DHT22;8977;50.902;4.314;2024-02-21T07:44:00;12.20;99.90
17715;DHT22;8977;50.902;4.314;2024-02-21T07:46:26;12.10;99.90
17715;DHT22;8977;50.902;4.314;2024-02-21T07:48:53;12.10;99.90
17715;DHT22;8977;50.902;4.314;2024-02-21T07:51:21;12.20;99.90
17715;DHT22;8977;50.902;4.314;2024-02-21T07:53:48;12.10;99.90
17715;DHT22;8977;50.902;4.314;2024-02-21T07:56:15;12.20;99.90
17715;DHT22;8977;50.902;4.314;2024-02-21T07:58:42;12.20;99.90
17715;DHT22;8977;50.902;4.314;2024-02-21T08:01:10;12.20;99.90
17715;DHT22;8977;50.902;4.314;2024-02-21T08:03:37;12.20;99.90
17715;DHT22;8977;50.902;4.314;2024-02-21T08:06:04;12.20;99.90
17715;DHT22;8977;50.902;4.314;2024-02-21T08:08:32;12.20;99.90
17715;DHT22;8977;50.902;4.314;2024-02-21T08:10:59;12.10;99.90
17715;DHT22;8977;50.902;4.314;2024-02-21T08:13:26;12.10;99.90
17715;DHT22;8977;50.902;4.314;2024-02-21T08:15:54;12.10;99.90
17715;DHT22;8977;50.902;4.314;2024-02-21T08:18:21;12.20;99.90
17715;DHT22;8977;50.902;4.314;2024-02-21T08:20:47;12.20;99.90
17715;DHT22;8977;50.902;4.314;2024-02-21T08:23:16;12.20;99.90
17715;DHT22;8977;50.902;4.314;2024-02-21T08:25:44;12.10;99.90
17715;DHT22;8977;50.902;4.314;2024-02-21T08:28:11;12.20;99.90
17715;DHT22;8977;50.902;4.314;2024-02-21T08:30:38;12.20;99.90
17715;DHT22;8977;50.902;4.314;2024-02-21T08:33:05;12.20;99.90
17715;DHT22;8977;50.902;4.314;2024-02-21T08:35:32;12.20;99.90
17715;DHT22;8977;50.902;4.314;2024-02-21T08:37:59;12.20;99.90
17715;DHT22;8977;50.902;4.314;2024-02-21T08:40:26;12.20;99.90
17715;DHT22;8977;50.902;4.314;2024-02-21T08:42:54;12.20;99.90
17715;DHT22;8977;50.902;4.314;2024-02-21T08:45:21;12.20;99.90
17715;DHT22;8977;50.902;4.314;2024-02-21T08:47:48;12.20;99.90
17715;DHT22;8977;50.902;4.314;2024-02-21T08:50:15;12.30;99.90
17715;DHT22;8977;50.902;4.314;2024-02-21T08:52:41;12.30;99.90
17715;DHT22;8977;50.902;4.314;2024-02-21T08:55:09;12.30;99.90
17715;DHT22;8977;50.902;4.314;2024-02-21T08:57:36;12.30;99.90
17715;DHT22;8977;50.902;4.314;2024-02-21T09:00:06;12.40;99.90
17715;DHT22;8977;50.902;4.314;2024-02-21T09:02:36;12.30;99.90
17715;DHT22;8977;50.902;4.314;2024-02-21T09:05:04;12.40;99.90
17715;DHT22;8977;50.902;4.314;2024-02-21T09:07:31;12.30;99.90
17715;DHT22;8977;50.902;4.314;2024-02-21T09:09:58;12.30;99.90
17715;DHT22;8977;50.902;4.314;2024-02-21T09:12:25;12.30;99.90
17715;DHT22;8977;50.902;4.314;2024-02-21T09:14:52;12.50;99.90
17715;DHT22;8977;50.902;4.314;2024-02-21T09:17:20;12.50;99.90
17715;DHT22;8977;50.902;4.314;2024-02-21T09:19:47;12.50;99.90
17715;DHT22;8977;50.902;4.314;2024-02-21T09:22:14;12.40;99.90
17715;DHT22;8977;50.902;4.314;2024-02-21T09:24:41;12.50;99.90
17715;DHT22;8977;50.902;4.314;2024-02-21T09:27:08;12.40;99.90
17715;DHT22;8977;50.902;4.314;2024-02-21T09:29:35;12.40;99.90
17715;DHT22;8977;50.902;4.314;2024-02-21T09:32:02;12.30;99.90
17715;DHT22;8977;50.902;4.314;2024-02-21T09:34:30;12.40;99.90
17715;DHT22;8977;50.902;4.314;2024-02-21T09:36:57;12.50;99.90
17715;DHT22;8977;50.902;4.314;2024-02-21T09:39:24;12.50;99.90
17715;DHT22;8977;50.902;4.314;2024-02-21T09:41:58;12.40;99.90
17715;DHT22;8977;50.902;4.314;2024-02-21T09:44:29;12.50;99.90
17715;DHT22;8977;50.902;4.314;2024-02-21T09:47:03;12.50;99.90
17715;DHT22;8977;50.902;4.314;2024-02-21T09:49:32;12.50;99.90
17715;DHT22;8977;50.902;4.314;2024-02-21T09:52:01;12.50;99.90
17715;DHT22;8977;50.902;4.314;2024-02-21T09:54:29;12.50;99.90
17715;DHT22;8977;50.902;4.314;2024-02-21T09:56:56;12.40;99.90
17715;DHT22;8977;50.902;4.314;2024-02-21T09:59:24;12.40;99.90
17715;DHT22;8977;50.902;4.314;2024-02-21T10:01:51;12.30;99.90
17715;DHT22;8977;50.902;4.314;2024-02-21T10:04:19;12.30;99.90
17715;DHT22;8977;50.902;4.314;2024-02-21T10:06:47;12.40;99.90
17715;DHT22;8977;50.902;4.314;2024-02-21T10:09:21;12.40;99.90
17715;DHT22;8977;50.902;4.314;2024-02-21T10:11:49;12.50;99.90
17715;DHT22;8977;50.902;4.314;2024-02-21T10:14:16;12.40;99.90
17715;DHT22;8977;50.902;4.314;2024-02-21T10:16:44;12.50;99.90
17715;DHT22;8977;50.902;4.314;2024-02-21T10:19:18;12.50;99.90
17715;DHT22;8977;50.902;4.314;2024-02-21T10:22:00;12.60;99.90
17715;DHT22;8977;50.902;4.314;2024-02-21T10:24:27;12.60;99.90
17715;DHT22;8977;50.902;4.314;2024-02-21T10:26:59;12.60;99.90
17715;DHT22;8977;50.902;4.314;2024-02-21T10:29:26;12.60;99.90
17715;DHT22;8977;50.902;4.314;2024-02-21T10:32:06;12.60;99.90
17715;DHT22;8977;50.902;4.314;2024-02-21T10:34:34;12.60;99.90
17715;DHT22;8977;50.902;4.314;2024-02-21T10:37:03;12.60;99.90
17715;DHT22;8977;50.902;4.314;2024-02-21T10:39:31;12.60;99.90
17715;DHT22;8977;50.902;4.314;2024-02-21T10:42:00;12.50;99.90
17715;DHT22;8977;50.902;4.314;2024-02-21T10:44:31;12.50;99.90
17715;DHT22;8977;50.902;4.314;2024-02-21T10:46:58;12.60;99.90
17715;DHT22;8977;50.902;4.314;2024-02-21T10:49:26;12.70;99.90
17715;DHT22;8977;50.902;4.314;2024-02-21T10:51:58;12.60;99.90
17715;DHT22;8977;50.902;4.314;2024-02-21T10:54:44;12.60;99.90
17715;DHT22;8977;50.902;4.314;2024-02-21T10:57:13;12.60;99.90
17715;DHT22;8977;50.902;4.314;2024-02-21T10:59:40;12.60;99.90
17715;DHT22;8977;50.902;4.314;2024-02-21T11:02:07;12.60;99.90
17715;DHT22;8977;50.902;4.314;2024-02-21T11:04:34;12.60;99.90
17715;DHT22;8977;50.902;4.314;2024-02-21T11:07:03;12.60;99.90
17715;DHT22;8977;50.902;4.314;2024-02-21T11:09:32;12.50;99.90
17715;DHT22;8977;50.902;4.314;2024-02-21T11:12:02;12.50;99.90
17715;DHT22;8977;50.902;4.314;2024-02-21T11:14:30;12.60;99.90
17715;DHT22;8977;50.902;4.314;2024-02-21T11:16:59;12.50;99.90
17715;DHT22;8977;50.902;4.314;2024-02-21T11:19:26;12.60;99.90
17715;DHT22;8977;50.902;4.314;2024-02-21T11:21:54;12.60;99.90
17715;DHT22;8977;50.902;4.314;2024-02-21T11:24:29;12.60;99.90
17715;DHT22;8977;50.902;4.314;2024-02-21T11:26:56;12.60;99.90
17715;DHT22;8977;50.902;4.314;2024-02-21T11:29:25;12.70;99.90
17715;DHT22;8977;50.902;4.314;2024-02-21T11:31:52;12.60;99.90
17715;DHT22;8977;50.902;4.314;2024-02-21T11:34:19;12.50;99.90
17715;DHT22;8977;50.902;4.314;2024-02-21T11:36:47;12.50;99.90
17715;DHT22;8977;50.902;4.314;2024-02-21T11:39:19;12.60;99.90
17715;DHT22;8977;50.902;4.314;2024-02-21T11:41:47;12.60;99.90
17715;DHT22;8977;50.902;4.314;2024-02-21T11:44:14;12.60;99.90
17715;DHT22;8977;50.902;4.314;2024-02-21T11:46:42;12.50;99.90
17715;DHT22;8977;50.902;4.314;2024-02-21T11:49:10;12.50;99.90
17715;DHT22;8977;50.902;4.314;2024-02-21T11:51:36;12.60;99.90
17715;DHT22;8977;50.902;4.314;2024-02-21T11:54:03;12.50;99.90
17715;DHT22;8977;50.902;4.314;2024-02-21T11:56:32;12.60;99.90
17715;DHT22;8977;50.902;4.314;2024-02-21T11:58:59;12.60;99.90
17715;DHT22;8977;50.902;4.314;2024-02-21T12:01:26;12.70;99.90
17715;DHT22;8977;50.902;4.314;2024-02-21T12:03:54;12.70;99.90
17715;DHT22;8977;50.902;4.314;2024-02-21T12:06:21;12.70;99.90
17715;DHT22;8977;50.902;4.314;2024-02-21T12:08:48;12.80;99.90
17715;DHT22;8977;50.902;4.314;2024-02-21T12:11:19;12.80;99.90
17715;DHT22;8977;50.902;4.314;2024-02-21T12:13:47;12.70;99.90
17715;DHT22;8977;50.902;4.314;2024-02-21T12:16:17;12.60;99.90
17715;DHT22;8977;50.902;4.314;2024-02-21T12:18:44;12.70;99.90
17715;DHT22;8977;50.902;4.314;2024-02-21T12:21:13;12.60;99.90
17715;DHT22;8977;50.902;4.314;2024-02-21T12:23:40;12.60;99.90
17715;DHT22;8977;50.902;4.314;2024-02-21T12:26:06;12.60;99.90
17715;DHT22;8977;50.902;4.314;2024-02-21T12:28:34;12.70;99.90
17715;DHT22;8977;50.902;4.314;2024-02-21T12:31:01;12.60;99.90
17715;DHT22;8977;50.902;4.314;2024-02-21T12:33:30;12.60;99.90
17715;DHT22;8977;50.902;4.314;2024-02-21T12:35:57;12.80;99.90
17715;DHT22;8977;50.902;4.314;2024-02-21T12:38:25;12.70;99.90
17715;DHT22;8977;50.902;4.314;2024-02-21T12:40:52;12.80;99.90
17715;DHT22;8977;50.902;4.314;2024-02-21T12:43:19;12.80;99.90
17715;DHT22;8977;50.902;4.314;2024-02-21T12:45:48;12.70;99.90
17715;DHT22;8977;50.902;4.314;2024-02-21T12:48:15;12.70;99.90
17715;DHT22;8977;50.902;4.314;2024-02-21T12:50:48;12.80;99.90
17715;DHT22;8977;50.902;4.314;2024-02-21T12:53:16;12.80;99.90
17715;DHT22;8977;50.902;4.314;2024-02-21T12:55:45;12.90;99.90
17715;DHT22;8977;50.902;4.314;2024-02-21T12:58:12;12.80;99.90
17715;DHT22;8977;50.902;4.314;2024-02-21T13:00:40;12.80;99.90
17715;DHT22;8977;50.902;4.314;2024-02-21T13:03:07;12.80;99.90
17715;DHT22;8977;50.902;4.314;2024-02-21T13:05:35;12.80;99.90
17715;DHT22;8977;50.902;4.314;2024-02-21T13:08:02;12.80;99.90
17715;DHT22;8977;50.902;4.314;2024-02-21T13:10:29;12.80;99.90
17715;DHT22;8977;50.902;4.314;2024-02-21T13:12:57;12.90;99.90
17715;DHT22;8977;50.902;4.314;2024-02-21T13:15:24;12.90;99.90
17715;DHT22;8977;50.902;4.314;2024-02-21T13:17:51;12.90;99.90
17715;DHT22;8977;50.902;4.314;2024-02-21T13:20:18;12.80;99.90
17715;DHT22;8977;50.902;4.314;2024-02-21T13:22:45;12.90;99.90
17715;DHT22;8977;50.902;4.314;2024-02-21T13:25:11;12.90;99.90
17715;DHT22;8977;50.902;4.314;2024-02-21T13:27:40;12.90;99.90
17715;DHT22;8977;50.902;4.314;2024-02-21T13:30:10;12.90;99.90
17715;DHT22;8977;50.902;4.314;2024-02-21T13:32:37;12.90;99.90
17715;DHT22;8977;50.902;4.314;2024-02-21T13:35:04;13.00;99.90
17715;DHT22;8977;50.902;4.314;2024-02-21T13:37:32;12.90;99.90
17715;DHT22;8977;50.902;4.314;2024-02-21T13:39:58;13.00;99.90
17715;DHT22;8977;50.902;4.314;2024-02-21T13:42:25;12.90;99.90
17715;DHT22;8977;50.902;4.314;2024-02-21T13:44:53;12.80;99.90
17715;DHT22;8977;50.902;4.314;2024-02-21T13:47:21;12.90;99.90
17715;DHT22;8977;50.902;4.314;2024-02-21T13:49:48;12.80;99.90
17715;DHT22;8977;50.902;4.314;2024-02-21T13:52:15;12.80;99.90
17715;DHT22;8977;50.902;4.314;2024-02-21T13:54:42;12.80;99.90
17715;DHT22;8977;50.902;4.314;2024-02-21T13:57:09;12.80;99.90
17715;DHT22;8977;50.902;4.314;2024-02-21T13:59:36;12.80;99.90
17715;DHT22;8977;50.902;4.314;2024-02-21T14:02:03;13.00;99.90
17715;DHT22;8977;50.902;4.314;2024-02-21T14:04:31;12.90;99.90
17715;DHT22;8977;50.902;4.314;2024-02-21T14:06:58;12.80;99.90
17715;DHT22;8977;50.902;4.314;2024-02-21T14:09:25;12.80;99.90
17715;DHT22;8977;50.902;4.314;2024-02-21T14:11:51;12.80;99.90
17715;DHT22;8977;50.902;4.314;2024-02-21T14:14:19;12.80;99.90
17715;DHT22;8977;50.902;4.314;2024-02-21T14:16:45;12.90;99.90
17715;DHT22;8977;50.902;4.314;2024-02-21T14:19:13;12.90;99.90
17715;DHT22;8977;50.902;4.314;2024-02-21T14:21:42;12.90;99.90
17715;DHT22;8977;50.902;4.314;2024-02-21T14:24:10;12.80;99.90
17715;DHT22;8977;50.902;4.314;2024-02-21T14:26:37;12.90;99.90
17715;DHT22;8977;50.902;4.314;2024-02-21T14:29:06;12.80;99.90
17715;DHT22;8977;50.902;4.314;2024-02-21T14:31:33;12.80;99.90
17715;DHT22;8977;50.902;4.314;2024-02-21T14:34:00;12.70;99.90
17715;DHT22;8977;50.902;4.314;2024-02-21T14:36:27;12.70;99.90
17715;DHT22;8977;50.902;4.314;2024-02-21T14:38:56;12.60;99.90
17715;DHT22;8977;50.902;4.314;2024-02-21T14:41:24;12.70;99.90
17715;DHT22;8977;50.902;4.314;2024-02-21T14:43:53;12.60;99.90
17715;DHT22;8977;50.902;4.314;2024-02-21T14:46:21;12.60;99.90
17715;DHT22;8977;50.902;4.314;2024-02-21T14:48:48;12.60;99.90
17715;DHT22;8977;50.902;4.314;2024-02-21T14:51:15;12.70;99.90
17715;DHT22;8977;50.902;4.314;2024-02-21T14:53:42;12.60;99.90
17715;DHT22;8977;50.902;4.314;2024-02-21T14:56:14;12.60;99.90
17715;DHT22;8977;50.902;4.314;2024-02-21T14:58:41;12.60;99.90
17715;DHT22;8977;50.902;4.314;2024-02-21T15:01:08;12.60;99.90
17715;DHT22;8977;50.902;4.314;2024-02-21T15:03:35;12.60;99.90
17715;DHT22;8977;50.902;4.314;2024-02-21T15:06:02;12.50;99.90
17715;DHT22;8977;50.902;4.314;2024-02-21T15:08:29;12.50;99.90
17715;DHT22;8977;50.902;4.314;2024-02-21T15:10:56;12.50;99.90
17715;DHT22;8977;50.902;4.314;2024-02-21T15:13:25;12.40;99.90
17715;DHT22;8977;50.902;4.314;2024-02-21T15:15:51;12.50;99.90
17715;DHT22;8977;50.902;4.314;2024-02-21T15:18:19;12.40;99.90
17715;DHT22;8977;50.902;4.314;2024-02-21T15:20:46;12.40;99.90
17715;DHT22;8977;50.902;4.314;2024-02-21T15:23:13;12.50;99.90
17715;DHT22;8977;50.902;4.314;2024-02-21T15:25:41;12.50;99.90
17715;DHT22;8977;50.902;4.314;2024-02-21T15:28:08;12.50;99.90
17715;DHT22;8977;50.902;4.314;2024-02-21T15:30:37;12.50;99.90
17715;DHT22;8977;50.902;4.314;2024-02-21T15:33:04;12.60;99.90
17715;DHT22;8977;50.902;4.314;2024-02-21T15:35:31;12.60;99.90
17715;DHT22;8977;50.902;4.314;2024-02-21T15:37:59;12.50;99.90
17715;DHT22;8977;50.902;4.314;2024-02-21T15:40:26;12.50;99.90
17715;DHT22;8977;50.902;4.314;2024-02-21T15:42:52;12.60;99.90
17715;DHT22;8977;50.902;4.314;2024-02-21T15:45:20;12.70;99.90
17715;DHT22;8977;50.902;4.314;2024-02-21T15:47:48;12.70;99.90